sensor_id;sensor_type;location;lat;lon;timestamp;P1;durP1;ratioP1;P2;durP2;ratioP2
72201;SDS011;60105;54.956;73.412;2022-09-09T00:09:21;10.98;;;5.00;;
72201;SDS011;60105;54.956;73.412;2022-09-09T00:11:54;9.20;;;3.80;;
72201;SDS011;60105;54.956;73.412;2022-09-09T00:14:43;6.72;;;3.40;;
72201;SDS011;60105;54.956;73.412;2022-09-09T00:28:48;9.27;;;4.43;;
72201;SDS011;60105;54.956;73.412;2022-09-09T00:31:20;8.13;;;4.00;;
72201;SDS011;60105;54.956;73.412;2022-09-09T00:36:45;9.98;;;4.68;;
72201;SDS011;60105;54.956;73.412;2022-09-09T00:48:10;9.15;;;4.05;;
72201;SDS011;60105;54.956;73.412;2022-09-09T00:50:55;10.23;;;4.88;;
72201;SDS011;60105;54.956;73.412;2022-09-09T00:56:41;11.05;;;4.85;;
72201;SDS011;60105;54.956;73.412;2022-09-09T01:02:17;12.95;;;4.72;;
72201;SDS011;60105;54.956;73.412;2022-09-09T01:04:53;11.75;;;5.25;;
72201;SDS011;60105;54.956;73.412;2022-09-09T01:07:25;11.67;;;4.60;;
72201;SDS011;60105;54.956;73.412;2022-09-09T01:10:14;12.27;;;4.40;;
72201;SDS011;60105;54.956;73.412;2022-09-09T01:12:53;9.50;;;4.20;;
72201;SDS011;60105;54.956;73.412;2022-09-09T01:15:26;8.85;;;4.15;;
72201;SDS011;60105;54.956;73.412;2022-09-09T01:18:05;9.02;;;4.15;;
72201;SDS011;60105;54.956;73.412;2022-09-09T01:20:41;7.10;;;4.70;;
72201;SDS011;60105;54.956;73.412;2022-09-09T01:23:45;10.90;;;4.68;;
72201;SDS011;60105;54.956;73.412;2022-09-09T01:26:41;10.73;;;4.72;;
72201;SDS011;60105;54.956;73.412;2022-09-09T01:29:26;11.45;;;4.63;;
72201;SDS011;60105;54.956;73.412;2022-09-09T01:31:54;13.43;;;5.15;;
72201;SDS011;60105;54.956;73.412;2022-09-09T01:34:23;15.83;;;5.70;;
72201;SDS011;60105;54.956;73.412;2022-09-09T01:39:31;19.02;;;6.78;;
72201;SDS011;60105;54.956;73.412;2022-09-09T01:42:13;12.70;;;6.15;;
72201;SDS011;60105;54.956;73.412;2022-09-09T01:44:42;12.27;;;5.97;;
72201;SDS011;60105;54.956;73.412;2022-09-09T01:47:08;13.87;;;5.73;;
72201;SDS011;60105;54.956;73.412;2022-09-09T01:49:50;12.02;;;5.88;;
72201;SDS011;60105;54.956;73.412;2022-09-09T01:52:27;12.65;;;5.95;;
72201;SDS011;60105;54.956;73.412;2022-09-09T01:54:54;14.10;;;6.57;;
72201;SDS011;60105;54.956;73.412;2022-09-09T01:57:25;15.52;;;6.78;;
72201;SDS011;60105;54.956;73.412;2022-09-09T02:00:23;13.00;;;4.97;;
72201;SDS011;60105;54.956;73.412;2022-09-09T02:06:02;9.38;;;5.22;;
72201;SDS011;60105;54.956;73.412;2022-09-09T02:11:16;8.55;;;4.25;;
72201;SDS011;60105;54.956;73.412;2022-09-09T02:14:00;10.03;;;4.67;;
72201;SDS011;60105;54.956;73.412;2022-09-09T02:19:18;9.73;;;3.97;;
72201;SDS011;60105;54.956;73.412;2022-09-09T02:22:24;9.65;;;4.88;;
72201;SDS011;60105;54.956;73.412;2022-09-09T02:24:54;15.90;;;6.80;;
72201;SDS011;60105;54.956;73.412;2022-09-09T02:27:26;19.10;;;7.57;;
72201;SDS011;60105;54.956;73.412;2022-09-09T02:29:53;19.48;;;8.23;;
72201;SDS011;60105;54.956;73.412;2022-09-09T02:32:38;21.73;;;8.00;;
72201;SDS011;60105;54.956;73.412;2022-09-09T02:35:16;21.33;;;7.68;;
72201;SDS011;60105;54.956;73.412;2022-09-09T02:37:46;17.60;;;7.82;;
72201;SDS011;60105;54.956;73.412;2022-09-09T02:40:14;15.37;;;6.93;;
72201;SDS011;60105;54.956;73.412;2022-09-09T02:42:48;20.23;;;8.45;;
72201;SDS011;60105;54.956;73.412;2022-09-09T02:45:29;30.85;;;8.70;;
72201;SDS011;60105;54.956;73.412;2022-09-09T02:48:27;24.23;;;9.07;;
72201;SDS011;60105;54.956;73.412;2022-09-09T02:56:45;15.48;;;6.95;;
72201;SDS011;60105;54.956;73.412;2022-09-09T02:59:18;18.33;;;7.60;;
72201;SDS011;60105;54.956;73.412;2022-09-09T03:01:54;15.88;;;7.72;;
72201;SDS011;60105;54.956;73.412;2022-09-09T03:04:22;16.55;;;6.55;;
72201;SDS011;60105;54.956;73.412;2022-09-09T03:06:53;16.33;;;7.17;;
72201;SDS011;60105;54.956;73.412;2022-09-09T03:09:20;20.92;;;7.32;;
72201;SDS011;60105;54.956;73.412;2022-09-09T03:11:48;16.13;;;7.70;;
72201;SDS011;60105;54.956;73.412;2022-09-09T03:14:16;20.63;;;9.07;;
72201;SDS011;60105;54.956;73.412;2022-09-09T03:16:42;20.95;;;9.02;;
72201;SDS011;60105;54.956;73.412;2022-09-09T03:19:09;28.17;;;12.33;;
72201;SDS011;60105;54.956;73.412;2022-09-09T03:21:36;28.02;;;11.05;;
72201;SDS011;60105;54.956;73.412;2022-09-09T03:24:02;32.05;;;11.45;;
72201;SDS011;60105;54.956;73.412;2022-09-09T03:26:29;30.27;;;12.57;;
72201;SDS011;60105;54.956;73.412;2022-09-09T03:28:57;17.63;;;8.02;;
72201;SDS011;60105;54.956;73.412;2022-09-09T03:31:27;12.13;;;5.23;;
72201;SDS011;60105;54.956;73.412;2022-09-09T03:33:57;13.27;;;4.72;;
72201;SDS011;60105;54.956;73.412;2022-09-09T03:36:26;14.45;;;6.18;;
72201;SDS011;60105;54.956;73.412;2022-09-09T03:38:52;15.40;;;7.43;;
72201;SDS011;60105;54.956;73.412;2022-09-09T03:41:21;18.55;;;10.32;;
72201;SDS011;60105;54.956;73.412;2022-09-09T03:43:50;10.37;;;5.40;;
72201;SDS011;60105;54.956;73.412;2022-09-09T03:46:18;9.50;;;4.55;;
72201;SDS011;60105;54.956;73.412;2022-09-09T03:48:51;8.02;;;4.45;;
72201;SDS011;60105;54.956;73.412;2022-09-09T03:51:20;7.05;;;4.07;;
72201;SDS011;60105;54.956;73.412;2022-09-09T03:53:57;7.35;;;3.53;;
72201;SDS011;60105;54.956;73.412;2022-09-09T03:56:25;7.70;;;3.27;;
72201;SDS011;60105;54.956;73.412;2022-09-09T03:58:52;8.25;;;3.78;;
72201;SDS011;60105;54.956;73.412;2022-09-09T04:01:23;9.38;;;4.50;;
72201;SDS011;60105;54.956;73.412;2022-09-09T04:03:49;13.00;;;5.25;;
72201;SDS011;60105;54.956;73.412;2022-09-09T04:06:16;7.40;;;3.35;;
72201;SDS011;60105;54.956;73.412;2022-09-09T04:08:51;9.67;;;3.90;;
72201;SDS011;60105;54.956;73.412;2022-09-09T04:11:19;7.95;;;3.60;;
72201;SDS011;60105;54.956;73.412;2022-09-09T04:13:48;5.68;;;3.33;;
72201;SDS011;60105;54.956;73.412;2022-09-09T04:16:21;8.00;;;3.13;;
72201;SDS011;60105;54.956;73.412;2022-09-09T04:18:53;5.50;;;2.72;;
72201;SDS011;60105;54.956;73.412;2022-09-09T04:21:27;6.57;;;2.53;;
72201;SDS011;60105;54.956;73.412;2022-09-09T04:23:53;6.68;;;3.00;;
72201;SDS011;60105;54.956;73.412;2022-09-09T04:26:21;5.85;;;3.00;;
72201;SDS011;60105;54.956;73.412;2022-09-09T04:28:47;6.25;;;3.30;;
72201;SDS011;60105;54.956;73.412;2022-09-09T04:31:28;4.50;;;1.98;;
72201;SDS011;60105;54.956;73.412;2022-09-09T04:33:56;5.53;;;2.20;;
72201;SDS011;60105;54.956;73.412;2022-09-09T04:36:22;5.75;;;1.80;;
72201;SDS011;60105;54.956;73.412;2022-09-09T04:39:02;4.53;;;1.95;;
72201;SDS011;60105;54.956;73.412;2022-09-09T04:41:29;4.05;;;2.30;;
72201;SDS011;60105;54.956;73.412;2022-09-09T04:43:57;4.15;;;1.92;;
72201;SDS011;60105;54.956;73.412;2022-09-09T04:46:24;3.77;;;1.80;;
72201;SDS011;60105;54.956;73.412;2022-09-09T04:48:51;3.92;;;2.05;;
72201;SDS011;60105;54.956;73.412;2022-09-09T04:51:18;8.00;;;1.73;;
72201;SDS011;60105;54.956;73.412;2022-09-09T04:53:52;4.07;;;2.15;;
72201;SDS011;60105;54.956;73.412;2022-09-09T04:56:24;4.07;;;2.03;;
72201;SDS011;60105;54.956;73.412;2022-09-09T04:58:56;7.13;;;1.70;;
72201;SDS011;60105;54.956;73.412;2022-09-09T05:01:29;4.00;;;1.63;;
72201;SDS011;60105;54.956;73.412;2022-09-09T05:04:01;4.35;;;1.70;;
72201;SDS011;60105;54.956;73.412;2022-09-09T05:06:28;4.65;;;2.20;;
72201;SDS011;60105;54.956;73.412;2022-09-09T05:09:00;4.05;;;1.83;;
72201;SDS011;60105;54.956;73.412;2022-09-09T05:11:29;4.37;;;1.43;;
72201;SDS011;60105;54.956;73.412;2022-09-09T05:14:06;3.83;;;1.33;;
72201;SDS011;60105;54.956;73.412;2022-09-09T05:16:32;4.47;;;2.15;;
72201;SDS011;60105;54.956;73.412;2022-09-09T05:18:59;4.20;;;1.98;;
72201;SDS011;60105;54.956;73.412;2022-09-09T05:21:31;7.05;;;2.03;;
72201;SDS011;60105;54.956;73.412;2022-09-09T05:23:57;3.83;;;1.87;;
72201;SDS011;60105;54.956;73.412;2022-09-09T05:26:34;3.63;;;1.60;;
72201;SDS011;60105;54.956;73.412;2022-09-09T05:29:01;7.75;;;1.92;;
72201;SDS011;60105;54.956;73.412;2022-09-09T05:31:30;7.00;;;1.90;;
72201;SDS011;60105;54.956;73.412;2022-09-09T05:33:59;3.17;;;1.65;;
72201;SDS011;60105;54.956;73.412;2022-09-09T05:36:25;7.43;;;1.67;;
72201;SDS011;60105;54.956;73.412;2022-09-09T05:38:55;3.80;;;1.90;;
72201;SDS011;60105;54.956;73.412;2022-09-09T05:41:23;8.88;;;2.05;;
72201;SDS011;60105;54.956;73.412;2022-09-09T05:43:56;5.97;;;2.13;;
72201;SDS011;60105;54.956;73.412;2022-09-09T05:46:32;4.35;;;2.17;;
72201;SDS011;60105;54.956;73.412;2022-09-09T05:48:59;5.40;;;1.90;;
72201;SDS011;60105;54.956;73.412;2022-09-09T05:51:30;6.50;;;1.90;;
72201;SDS011;60105;54.956;73.412;2022-09-09T05:54:01;4.00;;;1.83;;
72201;SDS011;60105;54.956;73.412;2022-09-09T05:56:31;11.32;;;2.28;;
72201;SDS011;60105;54.956;73.412;2022-09-09T05:59:08;5.00;;;1.80;;
72201;SDS011;60105;54.956;73.412;2022-09-09T06:01:35;11.33;;;2.27;;
72201;SDS011;60105;54.956;73.412;2022-09-09T06:04:08;7.60;;;1.80;;
72201;SDS011;60105;54.956;73.412;2022-09-09T06:06:35;7.30;;;1.90;;
72201;SDS011;60105;54.956;73.412;2022-09-09T06:09:10;5.10;;;1.75;;
72201;SDS011;60105;54.956;73.412;2022-09-09T06:11:40;5.32;;;1.95;;
72201;SDS011;60105;54.956;73.412;2022-09-09T06:14:08;5.00;;;2.13;;
72201;SDS011;60105;54.956;73.412;2022-09-09T06:16:40;5.03;;;1.95;;
72201;SDS011;60105;54.956;73.412;2022-09-09T06:19:21;6.50;;;2.17;;
72201;SDS011;60105;54.956;73.412;2022-09-09T06:21:50;5.53;;;2.15;;
72201;SDS011;60105;54.956;73.412;2022-09-09T06:24:26;4.38;;;2.17;;
72201;SDS011;60105;54.956;73.412;2022-09-09T06:26:56;3.33;;;1.67;;
72201;SDS011;60105;54.956;73.412;2022-09-09T06:29:27;4.10;;;1.70;;
72201;SDS011;60105;54.956;73.412;2022-09-09T06:31:54;5.10;;;2.47;;
72201;SDS011;60105;54.956;73.412;2022-09-09T06:34:22;7.22;;;2.30;;
72201;SDS011;60105;54.956;73.412;2022-09-09T06:37:03;6.18;;;2.28;;
72201;SDS011;60105;54.956;73.412;2022-09-09T06:39:41;4.10;;;1.87;;
72201;SDS011;60105;54.956;73.412;2022-09-09T06:42:08;4.15;;;1.70;;
72201;SDS011;60105;54.956;73.412;2022-09-09T06:44:58;6.65;;;3.50;;
72201;SDS011;60105;54.956;73.412;2022-09-09T06:47:33;5.60;;;2.42;;
72201;SDS011;60105;54.956;73.412;2022-09-09T06:49:59;3.35;;;2.05;;
72201;SDS011;60105;54.956;73.412;2022-09-09T06:52:26;4.70;;;1.80;;
72201;SDS011;60105;54.956;73.412;2022-09-09T06:54:53;7.75;;;2.72;;
72201;SDS011;60105;54.956;73.412;2022-09-09T06:57:20;6.10;;;1.80;;
72201;SDS011;60105;54.956;73.412;2022-09-09T06:59:47;6.57;;;2.60;;
72201;SDS011;60105;54.956;73.412;2022-09-09T07:02:13;4.22;;;2.00;;
72201;SDS011;60105;54.956;73.412;2022-09-09T07:04:40;5.37;;;1.97;;
72201;SDS011;60105;54.956;73.412;2022-09-09T07:07:06;7.03;;;2.65;;
72201;SDS011;60105;54.956;73.412;2022-09-09T07:09:36;6.00;;;2.22;;
72201;SDS011;60105;54.956;73.412;2022-09-09T07:12:07;6.07;;;2.33;;
72201;SDS011;60105;54.956;73.412;2022-09-09T07:14:36;6.07;;;2.50;;
72201;SDS011;60105;54.956;73.412;2022-09-09T07:17:06;4.17;;;1.80;;
72201;SDS011;60105;54.956;73.412;2022-09-09T07:19:41;4.50;;;1.77;;
72201;SDS011;60105;54.956;73.412;2022-09-09T07:22:09;6.05;;;2.20;;
72201;SDS011;60105;54.956;73.412;2022-09-09T07:24:37;3.83;;;1.92;;
72201;SDS011;60105;54.956;73.412;2022-09-09T07:27:08;5.47;;;2.17;;
72201;SDS011;60105;54.956;73.412;2022-09-09T07:29:36;6.20;;;1.73;;
72201;SDS011;60105;54.956;73.412;2022-09-09T07:32:03;4.82;;;1.67;;
72201;SDS011;60105;54.956;73.412;2022-09-09T07:34:34;6.15;;;1.80;;
72201;SDS011;60105;54.956;73.412;2022-09-09T07:37:01;5.65;;;2.03;;
72201;SDS011;60105;54.956;73.412;2022-09-09T07:39:33;3.70;;;2.10;;
72201;SDS011;60105;54.956;73.412;2022-09-09T07:42:01;9.50;;;2.00;;
72201;SDS011;60105;54.956;73.412;2022-09-09T07:44:27;7.43;;;2.25;;
72201;SDS011;60105;54.956;73.412;2022-09-09T07:47:07;4.75;;;2.13;;
72201;SDS011;60105;54.956;73.412;2022-09-09T07:49:48;3.95;;;1.60;;
72201;SDS011;60105;54.956;73.412;2022-09-09T07:52:19;7.35;;;2.38;;
72201;SDS011;60105;54.956;73.412;2022-09-09T07:54:48;5.63;;;2.37;;
72201;SDS011;60105;54.956;73.412;2022-09-09T07:57:14;5.05;;;1.83;;
72201;SDS011;60105;54.956;73.412;2022-09-09T07:59:47;11.48;;;2.40;;
72201;SDS011;60105;54.956;73.412;2022-09-09T08:02:14;9.13;;;2.17;;
72201;SDS011;60105;54.956;73.412;2022-09-09T08:04:45;6.55;;;2.08;;
72201;SDS011;60105;54.956;73.412;2022-09-09T08:07:12;5.53;;;2.17;;
72201;SDS011;60105;54.956;73.412;2022-09-09T08:09:45;4.03;;;2.03;;
72201;SDS011;60105;54.956;73.412;2022-09-09T08:12:19;5.43;;;2.00;;
72201;SDS011;60105;54.956;73.412;2022-09-09T08:14:45;7.22;;;2.00;;
72201;SDS011;60105;54.956;73.412;2022-09-09T08:17:21;4.82;;;1.80;;
72201;SDS011;60105;54.956;73.412;2022-09-09T08:19:48;6.43;;;2.37;;
72201;SDS011;60105;54.956;73.412;2022-09-09T08:22:19;5.28;;;2.00;;
72201;SDS011;60105;54.956;73.412;2022-09-09T08:24:49;7.32;;;2.80;;
72201;SDS011;60105;54.956;73.412;2022-09-09T08:27:23;4.85;;;2.05;;
72201;SDS011;60105;54.956;73.412;2022-09-09T08:29:50;7.10;;;2.65;;
72201;SDS011;60105;54.956;73.412;2022-09-09T08:32:17;5.73;;;2.30;;
72201;SDS011;60105;54.956;73.412;2022-09-09T08:34:45;8.18;;;2.50;;
72201;SDS011;60105;54.956;73.412;2022-09-09T08:37:23;5.30;;;2.22;;
72201;SDS011;60105;54.956;73.412;2022-09-09T08:39:51;7.22;;;2.25;;
72201;SDS011;60105;54.956;73.412;2022-09-09T08:42:22;8.77;;;2.35;;
72201;SDS011;60105;54.956;73.412;2022-09-09T08:45:11;4.03;;;1.93;;
72201;SDS011;60105;54.956;73.412;2022-09-09T08:51:13;8.43;;;2.25;;
72201;SDS011;60105;54.956;73.412;2022-09-09T08:53:44;8.73;;;2.53;;
72201;SDS011;60105;54.956;73.412;2022-09-09T08:56:18;5.63;;;1.88;;
72201;SDS011;60105;54.956;73.412;2022-09-09T08:58:55;8.87;;;3.00;;
72201;SDS011;60105;54.956;73.412;2022-09-09T09:04:28;8.45;;;2.40;;
72201;SDS011;60105;54.956;73.412;2022-09-09T09:07:16;7.63;;;2.38;;
72201;SDS011;60105;54.956;73.412;2022-09-09T09:12:52;9.10;;;2.70;;
72201;SDS011;60105;54.956;73.412;2022-09-09T09:15:23;8.65;;;2.70;;
72201;SDS011;60105;54.956;73.412;2022-09-09T09:17:53;8.68;;;2.97;;
72201;SDS011;60105;54.956;73.412;2022-09-09T09:20:37;8.68;;;2.80;;
72201;SDS011;60105;54.956;73.412;2022-09-09T09:23:17;4.70;;;2.40;;
72201;SDS011;60105;54.956;73.412;2022-09-09T09:25:49;5.73;;;2.50;;
72201;SDS011;60105;54.956;73.412;2022-09-09T09:28:21;4.88;;;2.58;;
72201;SDS011;60105;54.956;73.412;2022-09-09T09:30:55;7.03;;;2.58;;
72201;SDS011;60105;54.956;73.412;2022-09-09T09:33:49;7.15;;;2.80;;
72201;SDS011;60105;54.956;73.412;2022-09-09T09:36:37;21.70;;;2.78;;
72201;SDS011;60105;54.956;73.412;2022-09-09T09:39:29;15.27;;;2.50;;
72201;SDS011;60105;54.956;73.412;2022-09-09T09:42:09;9.65;;;2.83;;
72201;SDS011;60105;54.956;73.412;2022-09-09T09:44:42;6.57;;;2.83;;
72201;SDS011;60105;54.956;73.412;2022-09-09T09:47:14;7.45;;;2.58;;
72201;SDS011;60105;54.956;73.412;2022-09-09T09:49:55;5.00;;;2.90;;
72201;SDS011;60105;54.956;73.412;2022-09-09T09:52:26;8.67;;;3.10;;
72201;SDS011;60105;54.956;73.412;2022-09-09T09:54:55;10.90;;;3.03;;
72201;SDS011;60105;54.956;73.412;2022-09-09T09:57:33;13.55;;;2.80;;
72201;SDS011;60105;54.956;73.412;2022-09-09T10:02:50;12.80;;;3.58;;
72201;SDS011;60105;54.956;73.412;2022-09-09T10:05:25;6.70;;;3.57;;
72201;SDS011;60105;54.956;73.412;2022-09-09T10:08:18;6.97;;;2.83;;
72201;SDS011;60105;54.956;73.412;2022-09-09T10:10:49;6.40;;;3.03;;
72201;SDS011;60105;54.956;73.412;2022-09-09T10:13:47;6.18;;;3.28;;
72201;SDS011;60105;54.956;73.412;2022-09-09T10:24:27;6.57;;;2.83;;
72201;SDS011;60105;54.956;73.412;2022-09-09T10:27:20;11.00;;;2.90;;
72201;SDS011;60105;54.956;73.412;2022-09-09T10:35:34;6.55;;;3.03;;
72201;SDS011;60105;54.956;73.412;2022-09-09T10:38:20;10.93;;;3.55;;
72201;SDS011;60105;54.956;73.412;2022-09-09T10:41:20;11.07;;;3.05;;
72201;SDS011;60105;54.956;73.412;2022-09-09T10:55:19;8.18;;;4.25;;
72201;SDS011;60105;54.956;73.412;2022-09-09T10:57:51;8.45;;;3.75;;
72201;SDS011;60105;54.956;73.412;2022-09-09T11:03:09;10.18;;;3.40;;
72201;SDS011;60105;54.956;73.412;2022-09-09T11:05:53;6.68;;;2.92;;
72201;SDS011;60105;54.956;73.412;2022-09-09T11:08:25;9.57;;;3.38;;
72201;SDS011;60105;54.956;73.412;2022-09-09T11:13:49;11.63;;;3.33;;
72201;SDS011;60105;54.956;73.412;2022-09-09T11:16:53;8.20;;;2.70;;
72201;SDS011;60105;54.956;73.412;2022-09-09T11:19:41;10.80;;;3.35;;
72201;SDS011;60105;54.956;73.412;2022-09-09T11:24:45;10.02;;;3.13;;
72201;SDS011;60105;54.956;73.412;2022-09-09T11:27:27;7.47;;;2.90;;
72201;SDS011;60105;54.956;73.412;2022-09-09T11:30:11;6.03;;;2.92;;
72201;SDS011;60105;54.956;73.412;2022-09-09T11:38:50;13.50;;;3.65;;
72201;SDS011;60105;54.956;73.412;2022-09-09T11:41:19;7.97;;;2.90;;
72201;SDS011;60105;54.956;73.412;2022-09-09T11:43:50;11.65;;;3.45;;
72201;SDS011;60105;54.956;73.412;2022-09-09T11:46:19;8.90;;;3.55;;
72201;SDS011;60105;54.956;73.412;2022-09-09T11:48:59;8.23;;;2.53;;
72201;SDS011;60105;54.956;73.412;2022-09-09T11:51:27;6.93;;;2.92;;
72201;SDS011;60105;54.956;73.412;2022-09-09T11:53:57;13.23;;;3.30;;
72201;SDS011;60105;54.956;73.412;2022-09-09T11:56:29;6.55;;;2.90;;
72201;SDS011;60105;54.956;73.412;2022-09-09T11:59:29;6.80;;;2.47;;
72201;SDS011;60105;54.956;73.412;2022-09-09T12:02:10;7.05;;;2.83;;
72201;SDS011;60105;54.956;73.412;2022-09-09T12:04:53;8.20;;;2.38;;
72201;SDS011;60105;54.956;73.412;2022-09-09T12:07:23;5.23;;;2.03;;
72201;SDS011;60105;54.956;73.412;2022-09-09T12:10:22;9.27;;;2.90;;
72201;SDS011;60105;54.956;73.412;2022-09-09T12:12:52;10.32;;;2.50;;
72201;SDS011;60105;54.956;73.412;2022-09-09T12:17:57;10.57;;;2.85;;
72201;SDS011;60105;54.956;73.412;2022-09-09T12:20:38;6.67;;;2.23;;
72201;SDS011;60105;54.956;73.412;2022-09-09T12:23:19;7.13;;;2.90;;
72201;SDS011;60105;54.956;73.412;2022-09-09T12:26:08;5.53;;;2.90;;
72201;SDS011;60105;54.956;73.412;2022-09-09T12:32:11;9.35;;;2.65;;
72201;SDS011;60105;54.956;73.412;2022-09-09T12:37:41;9.93;;;2.80;;
72201;SDS011;60105;54.956;73.412;2022-09-09T12:40:32;7.97;;;3.05;;
72201;SDS011;60105;54.956;73.412;2022-09-09T12:43:16;6.38;;;2.53;;
72201;SDS011;60105;54.956;73.412;2022-09-09T12:45:48;5.80;;;2.85;;
72201;SDS011;60105;54.956;73.412;2022-09-09T12:48:22;7.57;;;2.43;;
72201;SDS011;60105;54.956;73.412;2022-09-09T12:50:54;5.85;;;3.13;;
72201;SDS011;60105;54.956;73.412;2022-09-09T12:55:59;8.98;;;3.40;;
72201;SDS011;60105;54.956;73.412;2022-09-09T12:58:29;10.75;;;3.63;;
72201;SDS011;60105;54.956;73.412;2022-09-09T13:00:59;8.53;;;3.37;;
72201;SDS011;60105;54.956;73.412;2022-09-09T13:03:30;10.43;;;3.50;;
72201;SDS011;60105;54.956;73.412;2022-09-09T13:06:11;11.90;;;4.63;;
72201;SDS011;60105;54.956;73.412;2022-09-09T13:08:39;7.68;;;4.32;;
72201;SDS011;60105;54.956;73.412;2022-09-09T13:11:07;9.68;;;4.53;;
72201;SDS011;60105;54.956;73.412;2022-09-09T13:13:39;8.63;;;5.27;;
72201;SDS011;60105;54.956;73.412;2022-09-09T13:19:10;7.75;;;5.05;;
72201;SDS011;60105;54.956;73.412;2022-09-09T13:21:41;12.95;;;4.97;;
72201;SDS011;60105;54.956;73.412;2022-09-09T13:24:32;12.70;;;5.43;;
72201;SDS011;60105;54.956;73.412;2022-09-09T13:29:28;9.68;;;4.75;;
72201;SDS011;60105;54.956;73.412;2022-09-09T13:32:03;10.57;;;5.70;;
72201;SDS011;60105;54.956;73.412;2022-09-09T13:34:32;12.38;;;4.95;;
72201;SDS011;60105;54.956;73.412;2022-09-09T13:37:01;11.68;;;5.68;;
72201;SDS011;60105;54.956;73.412;2022-09-09T13:39:36;13.17;;;5.83;;
72201;SDS011;60105;54.956;73.412;2022-09-09T13:42:19;12.40;;;6.35;;
72201;SDS011;60105;54.956;73.412;2022-09-09T13:45:01;16.85;;;6.20;;
72201;SDS011;60105;54.956;73.412;2022-09-09T13:47:35;14.32;;;6.75;;
72201;SDS011;60105;54.956;73.412;2022-09-09T13:52:49;17.87;;;7.70;;
72201;SDS011;60105;54.956;73.412;2022-09-09T13:55:19;16.20;;;7.35;;
72201;SDS011;60105;54.956;73.412;2022-09-09T13:57:51;21.55;;;7.95;;
72201;SDS011;60105;54.956;73.412;2022-09-09T14:00:30;18.30;;;8.00;;
72201;SDS011;60105;54.956;73.412;2022-09-09T14:03:08;17.52;;;8.27;;
72201;SDS011;60105;54.956;73.412;2022-09-09T14:05:40;15.37;;;7.80;;
72201;SDS011;60105;54.956;73.412;2022-09-09T14:08:06;18.02;;;8.48;;
72201;SDS011;60105;54.956;73.412;2022-09-09T14:10:41;18.77;;;9.65;;
72201;SDS011;60105;54.956;73.412;2022-09-09T14:13:07;23.83;;;11.63;;
72201;SDS011;60105;54.956;73.412;2022-09-09T14:15:43;22.40;;;10.60;;
72201;SDS011;60105;54.956;73.412;2022-09-09T14:18:13;24.27;;;11.70;;
72201;SDS011;60105;54.956;73.412;2022-09-09T14:20:39;27.73;;;11.90;;
72201;SDS011;60105;54.956;73.412;2022-09-09T14:23:12;25.02;;;11.70;;
72201;SDS011;60105;54.956;73.412;2022-09-09T14:25:43;18.90;;;10.95;;
72201;SDS011;60105;54.956;73.412;2022-09-09T14:28:10;25.58;;;11.65;;
72201;SDS011;60105;54.956;73.412;2022-09-09T14:30:41;28.70;;;12.17;;
72201;SDS011;60105;54.956;73.412;2022-09-09T14:33:09;24.33;;;12.73;;
72201;SDS011;60105;54.956;73.412;2022-09-09T14:35:47;28.60;;;14.10;;
72201;SDS011;60105;54.956;73.412;2022-09-09T14:38:24;24.98;;;12.40;;
72201;SDS011;60105;54.956;73.412;2022-09-09T14:40:55;20.73;;;11.88;;
72201;SDS011;60105;54.956;73.412;2022-09-09T14:43:22;24.73;;;13.00;;
72201;SDS011;60105;54.956;73.412;2022-09-09T14:45:49;22.58;;;11.52;;
72201;SDS011;60105;54.956;73.412;2022-09-09T14:48:17;22.27;;;13.35;;
72201;SDS011;60105;54.956;73.412;2022-09-09T14:50:43;22.30;;;12.02;;
72201;SDS011;60105;54.956;73.412;2022-09-09T14:53:14;29.58;;;13.75;;
72201;SDS011;60105;54.956;73.412;2022-09-09T14:55:42;25.37;;;12.77;;
72201;SDS011;60105;54.956;73.412;2022-09-09T14:58:08;27.02;;;12.07;;
72201;SDS011;60105;54.956;73.412;2022-09-09T15:00:34;28.30;;;12.73;;
72201;SDS011;60105;54.956;73.412;2022-09-09T15:03:01;30.00;;;12.85;;
72201;SDS011;60105;54.956;73.412;2022-09-09T15:05:28;27.38;;;13.85;;
72201;SDS011;60105;54.956;73.412;2022-09-09T15:07:55;24.33;;;11.70;;
72201;SDS011;60105;54.956;73.412;2022-09-09T15:10:22;26.80;;;11.77;;
72201;SDS011;60105;54.956;73.412;2022-09-09T15:12:48;24.95;;;12.45;;
72201;SDS011;60105;54.956;73.412;2022-09-09T15:15:24;23.63;;;12.48;;
72201;SDS011;60105;54.956;73.412;2022-09-09T15:17:52;26.27;;;11.27;;
72201;SDS011;60105;54.956;73.412;2022-09-09T15:20:23;30.87;;;12.10;;
72201;SDS011;60105;54.956;73.412;2022-09-09T15:22:49;25.83;;;10.80;;
72201;SDS011;60105;54.956;73.412;2022-09-09T15:25:26;26.60;;;11.27;;
72201;SDS011;60105;54.956;73.412;2022-09-09T15:27:56;24.52;;;13.57;;
72201;SDS011;60105;54.956;73.412;2022-09-09T15:30:32;27.08;;;12.45;;
72201;SDS011;60105;54.956;73.412;2022-09-09T15:32:58;28.47;;;11.57;;
72201;SDS011;60105;54.956;73.412;2022-09-09T15:35:24;22.30;;;11.63;;
72201;SDS011;60105;54.956;73.412;2022-09-09T15:37:56;27.40;;;12.43;;
72201;SDS011;60105;54.956;73.412;2022-09-09T15:40:23;21.25;;;10.65;;
72201;SDS011;60105;54.956;73.412;2022-09-09T15:42:54;20.30;;;9.77;;
72201;SDS011;60105;54.956;73.412;2022-09-09T15:45:20;24.33;;;9.83;;
72201;SDS011;60105;54.956;73.412;2022-09-09T15:47:47;17.88;;;10.30;;
72201;SDS011;60105;54.956;73.412;2022-09-09T15:50:14;21.63;;;9.43;;
72201;SDS011;60105;54.956;73.412;2022-09-09T15:52:40;13.05;;;7.22;;
72201;SDS011;60105;54.956;73.412;2022-09-09T15:55:07;12.25;;;8.50;;
72201;SDS011;60105;54.956;73.412;2022-09-09T15:57:34;20.57;;;9.10;;
72201;SDS011;60105;54.956;73.412;2022-09-09T16:00:05;18.30;;;10.00;;
72201;SDS011;60105;54.956;73.412;2022-09-09T16:02:32;18.10;;;8.77;;
72201;SDS011;60105;54.956;73.412;2022-09-09T16:04:59;14.80;;;8.65;;
72201;SDS011;60105;54.956;73.412;2022-09-09T16:07:26;20.17;;;9.05;;
72201;SDS011;60105;54.956;73.412;2022-09-09T16:09:52;13.97;;;8.47;;
72201;SDS011;60105;54.956;73.412;2022-09-09T16:12:19;16.08;;;8.50;;
72201;SDS011;60105;54.956;73.412;2022-09-09T16:14:47;17.73;;;9.35;;
72201;SDS011;60105;54.956;73.412;2022-09-09T16:17:13;17.30;;;8.27;;
72201;SDS011;60105;54.956;73.412;2022-09-09T16:19:41;16.90;;;8.82;;
72201;SDS011;60105;54.956;73.412;2022-09-09T16:22:07;17.83;;;8.97;;
72201;SDS011;60105;54.956;73.412;2022-09-09T16:24:38;16.98;;;8.43;;
72201;SDS011;60105;54.956;73.412;2022-09-09T16:27:04;16.42;;;8.88;;
72201;SDS011;60105;54.956;73.412;2022-09-09T16:29:32;19.77;;;9.15;;
72201;SDS011;60105;54.956;73.412;2022-09-09T16:31:58;19.95;;;10.55;;
72201;SDS011;60105;54.956;73.412;2022-09-09T16:34:25;19.73;;;9.17;;
72201;SDS011;60105;54.956;73.412;2022-09-09T16:37:02;16.85;;;9.73;;
72201;SDS011;60105;54.956;73.412;2022-09-09T16:39:28;19.38;;;11.23;;
72201;SDS011;60105;54.956;73.412;2022-09-09T16:41:59;23.88;;;9.25;;
72201;SDS011;60105;54.956;73.412;2022-09-09T16:44:35;23.98;;;11.23;;
72201;SDS011;60105;54.956;73.412;2022-09-09T16:47:02;24.93;;;12.20;;
72201;SDS011;60105;54.956;73.412;2022-09-09T16:49:28;27.88;;;13.40;;
72201;SDS011;60105;54.956;73.412;2022-09-09T16:51:57;30.02;;;11.90;;
72201;SDS011;60105;54.956;73.412;2022-09-09T16:54:34;27.80;;;11.50;;
72201;SDS011;60105;54.956;73.412;2022-09-09T16:57:01;23.83;;;13.27;;
72201;SDS011;60105;54.956;73.412;2022-09-09T16:59:33;35.87;;;14.00;;
72201;SDS011;60105;54.956;73.412;2022-09-09T17:01:59;25.75;;;12.88;;
72201;SDS011;60105;54.956;73.412;2022-09-09T17:04:26;30.17;;;14.50;;